Time;durP1;ratioP1;P1;durP2;ratioP2;P2;SDS_P1;SDS_P2;PMS_P1;PMS_P2;Temp;Humidity;BMP_temperature;BMP_pressure;BME280_temperature;BME280_humidity;BME280_pressure;Samples;Min_cycle;Max_cycle;Signal;HPM_P1;HPM_P2
2023/06/06 00:00:16;;;;;;;78.97;2.10;;;22.20;30.50;;;;;;5011321;28;20529;-71
2023/06/06 00:02:44;;;;;;;79.57;2.57;;;22.20;30.30;;;;;;5010662;28;20422;-71
2023/06/06 00:05:13;;;;;;;78.77;2.20;;;22.40;30.40;;;;;;5011168;28;20423;-72
2023/06/06 00:07:40;;;;;;;78.80;2.00;;;22.40;29.30;;;;;;5011189;28;20471;-72
2023/06/06 00:10:08;;;;;;;78.83;2.00;;;22.20;30.60;;;;;;5010733;28;20506;-71
2023/06/06 00:12:34;;;;;;;78.90;2.20;;;22.10;30.00;;;;;;5010556;28;20452;-72
2023/06/06 00:15:00;;;;;;;80.20;2.80;;;22.10;30.40;;;;;;5011476;28;20898;-71
2023/06/06 00:17:26;;;;;;;79.10;2.10;;;22.10;30.60;;;;;;5011365;28;20179;-71
2023/06/06 00:19:52;;;;;;;78.90;1.90;;;22.20;31.40;;;;;;5011447;28;20658;-71
2023/06/06 00:22:23;;;;;;;80.17;2.67;;;21.90;30.10;;;;;;5011448;28;20449;-71
2023/06/06 00:24:52;;;;;;;79.27;2.23;;;21.90;31.10;;;;;;5010583;28;20808;-72
2023/06/06 00:27:19;;;;;;;78.80;1.77;;;21.90;30.60;;;;;;5011416;28;20425;-71
2023/06/06 00:29:45;;;;;;;79.27;2.07;;;21.90;31.00;;;;;;5010842;28;20429;-71
2023/06/06 00:32:11;;;;;;;79.20;2.10;;;21.80;32.80;;;;;;5011211;28;20473;-71
2023/06/06 00:34:36;;;;;;;79.43;2.33;;;21.80;32.70;;;;;;5010202;28;20196;-72
2023/06/06 00:37:02;;;;;;;79.47;2.30;;;21.90;32.10;;;;;;5011293;28;20555;-71
2023/06/06 00:39:28;;;;;;;79.50;2.20;;;21.90;31.70;;;;;;5011131;28;20200;-71
2023/06/06 00:41:53;;;;;;;79.30;2.00;;;21.80;32.80;;;;;;5011352;28;20174;-71
2023/06/06 00:44:20;;;;;;;80.07;2.30;;;21.80;32.50;;;;;;5010475;28;20633;-71
2023/06/06 00:46:47;;;;;;;80.30;2.57;;;21.70;32.80;;;;;;5011016;28;20189;-71
2023/06/06 00:49:14;;;;;;;79.93;2.40;;;21.70;32.20;;;;;;5011016;28;20535;-71
2023/06/06 00:51:42;;;;;;;80.07;2.30;;;21.60;33.70;;;;;;5010839;28;20413;-72
2023/06/06 00:54:12;;;;;;;79.77;2.07;;;21.70;33.00;;;;;;5009969;28;20461;-71
2023/06/06 00:56:39;;;;;;;80.00;2.23;;;21.50;33.40;;;;;;5008602;28;20434;-71
2023/06/06 00:59:06;;;;;;;79.93;2.20;;;21.40;33.40;;;;;;5009162;28;20506;-71
2023/06/06 01:01:34;;;;;;;80.17;2.37;;;21.40;33.60;;;;;;5011192;28;20847;-71
2023/06/06 01:04:07;;;;;;;80.20;2.30;;;21.30;34.50;;;;;;5010102;28;20511;-71
2023/06/06 01:06:34;;;;;;;80.23;2.30;;;21.20;34.10;;;;;;5012045;28;20421;-71
2023/06/06 01:09:02;;;;;;;80.07;1.93;;;21.20;33.90;;;;;;5013806;28;20436;-71
2023/06/06 01:11:38;;;;;;;80.03;1.90;;;21.20;33.50;;;;;;5014470;28;20421;-71
2023/06/06 01:14:11;;;;;;;80.10;1.90;;;21.10;33.60;;;;;;5013808;28;20822;-71
2023/06/06 01:16:39;;;;;;;80.17;1.90;;;21.10;32.80;;;;;;5014284;28;20409;-71
2023/06/06 01:19:11;;;;;;;81.33;2.20;;;21.00;32.90;;;;;;5014118;28;20858;-71
2023/06/06 01:21:42;;;;;;;80.60;2.10;;;21.00;32.10;;;;;;5014221;28;20393;-71
2023/06/06 01:24:08;;;;;;;81.33;2.50;;;21.00;33.70;;;;;;5013290;28;20414;-72
2023/06/06 01:26:34;;;;;;;80.93;2.33;;;20.90;33.00;;;;;;5019612;28;20427;-71
2023/06/06 01:29:00;;;;;;;81.37;2.47;;;21.00;32.70;;;;;;5033242;28;20579;-71
2023/06/06 01:31:31;;;;;;;80.77;2.10;;;21.10;32.50;;;;;;5033662;28;20208;-71
2023/06/06 01:34:06;;;;;;;80.83;2.03;;;21.10;32.80;;;;;;5031931;28;20243;-72
2023/06/06 01:36:48;;;;;;;81.33;2.43;;;21.10;31.90;;;;;;5033213;28;20774;-72
2023/06/06 01:39:17;;;;;;;81.63;2.00;;;20.80;32.80;;;;;;5034170;28;20943;-72
2023/06/06 01:41:45;;;;;;;81.27;2.30;;;20.80;32.60;;;;;;5032688;28;20421;-72
2023/06/06 01:44:12;;;;;;;81.53;2.67;;;20.70;33.90;;;;;;5031925;28;20495;-72
2023/06/06 01:46:40;;;;;;;81.20;2.20;;;20.60;33.80;;;;;;5032801;28;20907;-72
2023/06/06 01:49:07;;;;;;;81.37;2.23;;;20.50;33.20;;;;;;5032599;28;20435;-72
2023/06/06 01:51:33;;;;;;;81.30;2.10;;;20.50;34.10;;;;;;5032777;28;20946;-72
2023/06/06 01:53:59;;;;;;;81.37;2.23;;;20.50;33.70;;;;;;5031664;28;20554;-72
2023/06/06 01:56:25;;;;;;;81.43;2.20;;;20.50;34.40;;;;;;5032726;28;20173;-72
2023/06/06 01:58:52;;;;;;;81.53;2.30;;;20.20;34.50;;;;;;5032847;28;20449;-72
2023/06/06 02:01:17;;;;;;;81.50;2.20;;;20.20;34.20;;;;;;5033475;28;20474;-72
2023/06/06 02:03:43;;;;;;;81.43;2.13;;;20.00;34.30;;;;;;5032895;28;20407;-72
2023/06/06 02:06:09;;;;;;;81.40;2.10;;;20.00;34.50;;;;;;5032877;28;20640;-72
2023/06/06 02:08:35;;;;;;;81.40;2.10;;;20.00;34.80;;;;;;5033371;28;20468;-72
2023/06/06 02:11:00;;;;;;;81.87;2.50;;;20.00;34.70;;;;;;5033236;28;20171;-72
2023/06/06 02:13:26;;;;;;;81.63;2.23;;;19.90;34.20;;;;;;5031277;28;20659;-72
2023/06/06 02:15:52;;;;;;;81.60;2.17;;;19.90;34.70;;;;;;5033001;28;20183;-72
2023/06/06 02:18:17;;;;;;;81.87;2.30;;;19.90;35.30;;;;;;5032634;28;20175;-72
2023/06/06 02:20:43;;;;;;;81.50;2.10;;;19.80;35.20;;;;;;5033009;28;20740;-72
2023/06/06 02:23:09;;;;;;;81.60;2.17;;;19.80;34.90;;;;;;5032465;28;20179;-72
2023/06/06 02:25:37;;;;;;;81.47;1.90;;;19.80;35.00;;;;;;5032920;28;20167;-72
2023/06/06 02:28:03;;;;;;;82.00;2.23;;;19.80;35.30;;;;;;5032667;28;20418;-72
2023/06/06 02:30:29;;;;;;;81.50;2.00;;;19.80;35.30;;;;;;5032563;28;20461;-72
2023/06/06 02:32:56;;;;;;;82.20;2.20;;;19.80;35.90;;;;;;5032198;28;20502;-72
2023/06/06 02:35:22;;;;;;;81.90;2.27;;;19.80;35.20;;;;;;5032828;28;20453;-72
2023/06/06 02:37:48;;;;;;;81.60;2.10;;;19.80;34.50;;;;;;5032775;28;20433;-72
2023/06/06 02:40:14;;;;;;;81.47;1.90;;;19.90;34.40;;;;;;5032949;28;20941;-72
2023/06/06 02:42:39;;;;;;;82.23;2.73;;;19.80;35.50;;;;;;5031970;28;20241;-72
2023/06/06 02:45:10;;;;;;;82.77;2.03;;;19.70;36.80;;;;;;5032506;28;20190;-72
2023/06/06 02:47:36;;;;;;;81.70;2.10;;;19.60;35.70;;;;;;5032999;28;20224;-72
2023/06/06 02:50:03;;;;;;;81.93;2.30;;;19.40;37.10;;;;;;5032511;28;20423;-72
2023/06/06 02:52:28;;;;;;;82.07;2.50;;;19.50;36.90;;;;;;5032190;28;20494;-72
2023/06/06 02:54:54;;;;;;;81.77;2.23;;;19.30;36.00;;;;;;5032173;28;20503;-72
2023/06/06 02:57:21;;;;;;;82.07;2.20;;;19.20;37.30;;;;;;5032490;28;20247;-72
2023/06/06 02:59:47;;;;;;;82.83;2.60;;;19.40;35.80;;;;;;5031948;28;20478;-72
2023/06/06 03:02:15;;;;;;;81.80;2.00;;;19.60;35.60;;;;;;5032377;28;20409;-72
2023/06/06 03:04:43;;;;;;;82.00;2.23;;;19.70;35.10;;;;;;5031473;28;20399;-72
2023/06/06 03:07:12;;;;;;;82.00;2.20;;;19.60;36.10;;;;;;5032137;28;20525;-72
2023/06/06 03:09:38;;;;;;;82.17;2.30;;;19.50;36.50;;;;;;5032100;28;20427;-72
2023/06/06 03:12:04;;;;;;;82.27;2.33;;;19.40;36.80;;;;;;5032149;28;20413;-72
2023/06/06 03:14:30;;;;;;;84.30;2.90;;;19.40;36.90;;;;;;5031290;28;20536;-72
2023/06/06 03:16:56;;;;;;;82.07;2.13;;;19.30;36.80;;;;;;5031874;28;20546;-72
2023/06/06 03:19:22;;;;;;;82.07;2.00;;;19.30;37.10;;;;;;5032026;28;20200;-72
2023/06/06 03:21:48;;;;;;;82.20;2.20;;;19.30;36.70;;;;;;5031890;28;20253;-72
2023/06/06 03:24:15;;;;;;;82.30;2.37;;;19.30;36.90;;;;;;5031500;28;20892;-72
2023/06/06 03:26:46;;;;;;;82.10;1.93;;;19.10;37.10;;;;;;5032149;28;20449;-72
2023/06/06 03:29:12;;;;;;;82.37;2.20;;;18.90;37.50;;;;;;5030733;28;20442;-72
2023/06/06 03:31:38;;;;;;;82.67;2.10;;;18.90;37.30;;;;;;5031615;28;20550;-72
2023/06/06 03:34:04;;;;;;;82.50;2.27;;;18.80;38.40;;;;;;5031077;28;20546;-72
2023/06/06 03:36:33;;;;;;;82.30;2.20;;;18.70;37.80;;;;;;5031593;28;20314;-71
2023/06/06 03:39:00;;;;;;;82.27;2.07;;;18.60;38.70;;;;;;5031443;28;20841;-71
2023/06/06 03:41:25;;;;;;;82.30;2.03;;;18.70;38.70;;;;;;5030396;28;20411;-71
2023/06/06 03:43:51;;;;;;;82.80;2.40;;;18.50;39.10;;;;;;5031002;28;20436;-71
2023/06/06 03:46:16;;;;;;;82.50;2.30;;;18.70;38.90;;;;;;5031522;28;20174;-71
2023/06/06 03:48:42;;;;;;;82.40;2.17;;;18.60;39.20;;;;;;5031570;28;20215;-71
2023/06/06 03:51:08;;;;;;;82.37;2.00;;;18.60;39.30;;;;;;5031107;28;20239;-71
2023/06/06 03:53:33;;;;;;;82.40;2.20;;;18.60;39.70;;;;;;5030812;28;20228;-71
2023/06/06 03:55:59;;;;;;;82.90;2.20;;;18.60;39.40;;;;;;5031366;28;20181;-71
2023/06/06 03:58:25;;;;;;;82.70;2.40;;;18.60;38.80;;;;;;5031308;28;20177;-71
2023/06/06 04:00:51;;;;;;;82.50;2.30;;;18.60;39.80;;;;;;5031219;28;20162;-72
2023/06/06 04:03:17;;;;;;;82.10;2.10;;;18.70;38.40;;;;;;5030599;28;20175;-72
2023/06/06 04:05:45;;;;;;;83.27;2.10;;;15.80;36.20;;;;;;5031311;28;20425;-72
2023/06/06 04:08:10;;;;;;;82.20;2.00;;;18.80;38.70;;;;;;5030102;28;20184;-72
2023/06/06 04:10:36;;;;;;;82.00;2.10;;;18.70;39.10;;;;;;5031184;28;20431;-72
2023/06/06 04:13:02;;;;;;;82.00;1.90;;;18.70;38.80;;;;;;5030489;28;20199;-72
2023/06/06 04:15:28;;;;;;;82.33;2.30;;;18.80;38.00;;;;;;5031360;28;20169;-72
2023/06/06 04:17:54;;;;;;;83.03;2.30;;;18.80;37.80;;;;;;5031326;28;20757;-72
2023/06/06 04:20:20;;;;;;;82.33;2.10;;;18.90;38.60;;;;;;5031136;28;20240;-72
2023/06/06 04:22:45;;;;;;;82.47;2.30;;;18.90;38.60;;;;;;5030693;28;20452;-71
2023/06/06 04:25:14;;;;;;;82.43;2.20;;;18.90;38.20;;;;;;5031091;28;20172;-71
2023/06/06 04:27:40;;;;;;;82.53;2.33;;;19.00;37.60;;;;;;5031222;28;20179;-71
2023/06/06 04:30:06;;;;;;;82.40;2.20;;;19.00;37.90;;;;;;5030950;28;20432;-71
2023/06/06 04:32:32;;;;;;;83.03;2.50;;;19.00;37.70;;;;;;5031092;28;20416;-71
2023/06/06 04:34:58;;;;;;;82.40;2.30;;;19.10;37.10;;;;;;5030763;28;20415;-71
2023/06/06 04:37:25;;;;;;;82.30;2.00;;;19.20;37.80;;;;;;5031270;28;20169;-71
2023/06/06 04:39:53;;;;;;;82.70;2.30;;;19.20;38.60;;;;;;5031230;28;20452;-71
2023/06/06 04:42:21;;;;;;;83.00;2.30;;;19.00;37.70;;;;;;5034179;28;20503;-71
2023/06/06 04:44:46;;;;;;;82.77;2.40;;;18.90;38.10;;;;;;5034217;28;20447;-71
2023/06/06 04:47:14;;;;;;;82.87;2.33;;;18.70;38.70;;;;;;5034749;28;20432;-71
2023/06/06 04:49:40;;;;;;;82.77;2.40;;;18.90;38.60;;;;;;5034832;28;20648;-71
2023/06/06 04:52:08;;;;;;;82.73;2.23;;;19.00;38.20;;;;;;5034709;28;20444;-71
2023/06/06 04:54:38;;;;;;;82.70;2.17;;;19.20;37.90;;;;;;5034068;28;20478;-71
2023/06/06 04:57:06;;;;;;;82.77;2.30;;;19.30;37.40;;;;;;5034553;28;20413;-71
2023/06/06 04:59:37;;;;;;;83.23;2.53;;;19.00;37.80;;;;;;5034191;28;20435;-71
2023/06/06 05:02:03;;;;;;;83.57;2.80;;;19.10;38.20;;;;;;5034536;28;20404;-71
2023/06/06 05:04:32;;;;;;;83.37;2.47;;;18.70;37.90;;;;;;5034008;28;20423;-71
2023/06/06 05:06:58;;;;;;;83.07;2.47;;;18.40;39.30;;;;;;5034457;28;20407;-71
2023/06/06 05:09:24;;;;;;;83.87;2.60;;;18.80;39.30;;;;;;5034386;28;20509;-71
2023/06/06 05:11:52;;;;;;;84.57;3.03;;;19.00;37.30;;;;;;5034403;28;20421;-71
2023/06/06 05:14:24;;;;;;;83.70;2.67;;;19.10;38.40;;;;;;5033611;28;20438;-71
2023/06/06 05:16:52;;;;;;;84.07;2.70;;;19.40;36.60;;;;;;5034349;28;20415;-71
2023/06/06 05:19:18;;;;;;;82.70;2.23;;;19.10;37.40;;;;;;5034039;28;20495;-71
2023/06/06 05:21:44;;;;;;;82.93;2.50;;;19.30;37.60;;;;;;5034168;28;20408;-71
2023/06/06 05:24:10;;;;;;;83.17;2.57;;;19.60;38.80;;;;;;5033589;28;20203;-71
2023/06/06 05:26:35;;;;;;;82.60;2.30;;;19.60;36.90;;;;;;5034166;28;20414;-71
2023/06/06 05:29:01;;;;;;;82.87;2.40;;;19.60;36.20;;;;;;5033529;28;20519;-71
2023/06/06 05:31:27;;;;;;;84.57;2.83;;;19.50;36.90;;;;;;5034033;28;20547;-71
2023/06/06 05:33:53;;;;;;;82.60;2.20;;;19.70;35.60;;;;;;5033133;28;20658;-71
2023/06/06 05:36:19;;;;;;;84.87;2.93;;;20.10;35.70;;;;;;5033597;28;20172;-71
2023/06/06 05:38:46;;;;;;;84.97;2.90;;;20.00;34.90;;;;;;5033887;28;20434;-71
2023/06/06 05:41:12;;;;;;;83.10;2.40;;;19.70;35.30;;;;;;5033826;28;20775;-71
2023/06/06 05:43:38;;;;;;;82.30;2.10;;;19.60;36.50;;;;;;5033206;28;20745;-71
2023/06/06 05:46:03;;;;;;;83.00;2.10;;;19.60;36.50;;;;;;5033728;28;20422;-71
2023/06/06 05:48:29;;;;;;;83.27;2.70;;;19.90;35.50;;;;;;5033496;28;20176;-71
2023/06/06 05:50:56;;;;;;;84.00;2.70;;;19.60;35.60;;;;;;5033980;28;20186;-71
2023/06/06 05:53:23;;;;;;;82.60;2.50;;;19.70;36.30;;;;;;5032095;28;20193;-71
2023/06/06 05:55:49;;;;;;;82.30;2.10;;;19.40;36.30;;;;;;5033488;28;20969;-71
2023/06/06 05:58:15;;;;;;;82.47;2.30;;;19.30;37.70;;;;;;5033490;28;20417;-71
2023/06/06 06:00:41;;;;;;;82.70;2.47;;;19.00;38.90;;;;;;5032863;28;20496;-71
2023/06/06 06:03:08;;;;;;;82.53;2.50;;;19.00;38.20;;;;;;5032791;28;20414;-71
2023/06/06 06:05:34;;;;;;;82.40;2.30;;;18.80;39.40;;;;;;5033543;28;20410;-71
2023/06/06 06:08:02;;;;;;;82.50;2.47;;;18.80;39.20;;;;;;5032290;28;20876;-71
2023/06/06 06:10:29;;;;;;;82.77;2.50;;;18.70;39.90;;;;;;5032758;28;20435;-71
2023/06/06 06:12:55;;;;;;;82.87;2.53;;;19.10;38.40;;;;;;5032315;28;20430;-71
2023/06/06 06:15:21;;;;;;;83.60;2.97;;;19.00;40.00;;;;;;5032888;28;20778;-71
2023/06/06 06:17:48;;;;;;;82.50;2.30;;;19.30;38.40;;;;;;5033061;28;20403;-71
2023/06/06 06:20:15;;;;;;;82.50;2.50;;;19.40;38.70;;;;;;5033052;28;20426;-71
2023/06/06 06:22:42;;;;;;;82.97;2.40;;;19.30;38.40;;;;;;5032376;28;20974;-71
2023/06/06 06:25:14;;;;;;;82.47;2.37;;;19.30;39.20;;;;;;5031404;28;20501;-71
2023/06/06 06:27:40;;;;;;;82.20;2.20;;;19.30;38.70;;;;;;5031678;28;20412;-71
2023/06/06 06:30:08;;;;;;;82.27;2.20;;;19.20;39.10;;;;;;5032823;28;20940;-71
2023/06/06 06:32:35;;;;;;;82.50;2.27;;;19.70;39.20;;;;;;5032392;28;20411;-71
2023/06/06 06:35:02;;;;;;;82.40;2.23;;;19.60;38.80;;;;;;5032727;28;20469;-72
2023/06/06 06:37:31;;;;;;;82.30;2.40;;;20.40;37.30;;;;;;5032672;28;20416;-72
2023/06/06 06:39:58;;;;;;;82.43;2.53;;;20.70;35.70;;;;;;5032631;28;20435;-72
2023/06/06 06:42:24;;;;;;;81.97;2.07;;;20.00;36.30;;;;;;5032677;28;20400;-72
2023/06/06 06:44:51;;;;;;;82.20;2.33;;;19.80;37.60;;;;;;5032101;28;20451;-72
2023/06/06 06:47:17;;;;;;;82.10;2.40;;;19.70;37.20;;;;;;5032375;28;20418;-72
2023/06/06 06:49:42;;;;;;;82.17;2.40;;;20.20;37.00;;;;;;5032564;28;20810;-72
2023/06/06 06:52:11;;;;;;;82.27;2.53;;;20.50;37.40;;;;;;5032615;28;20417;-72
2023/06/06 06:54:58;;;;;;;82.10;2.40;;;20.60;36.30;;;;;;5031993;28;20745;-72
2023/06/06 06:57:29;;;;;;;82.20;2.50;;;20.30;35.70;;;;;;5032372;28;20950;-72
2023/06/06 06:59:58;;;;;;;81.90;2.30;;;19.60;38.70;;;;;;5031655;28;20444;-72
2023/06/06 07:02:26;;;;;;;82.50;2.23;;;19.60;38.80;;;;;;5032368;28;20400;-72
2023/06/06 07:04:59;;;;;;;81.80;2.10;;;20.00;39.00;;;;;;5031480;28;20432;-72
2023/06/06 07:07:25;;;;;;;81.97;2.10;;;20.40;37.90;;;;;;5032323;28;20453;-72
2023/06/06 07:09:51;;;;;;;82.57;2.60;;;20.80;35.80;;;;;;5031805;28;20524;-72
2023/06/06 07:12:16;;;;;;;82.07;2.27;;;20.80;35.20;;;;;;5032206;28;20779;-72
2023/06/06 07:14:42;;;;;;;83.83;2.70;;;21.40;34.60;;;;;;5031783;28;20453;-72
2023/06/06 07:17:08;;;;;;;83.10;2.37;;;21.50;33.40;;;;;;5032047;28;20174;-72
2023/06/06 07:19:35;;;;;;;82.07;2.50;;;21.30;34.50;;;;;;5031883;28;20728;-72
2023/06/06 07:22:05;;;;;;;81.87;2.07;;;21.60;33.10;;;;;;5031908;28;20537;-72
2023/06/06 07:24:31;;;;;;;81.80;2.30;;;21.60;33.60;;;;;;5030988;28;20414;-72
2023/06/06 07:26:57;;;;;;;81.77;2.40;;;21.80;34.60;;;;;;5031895;28;20507;-72
2023/06/06 07:29:24;;;;;;;81.70;2.40;;;21.80;32.40;;;;;;5030937;28;20951;-72
2023/06/06 07:31:50;;;;;;;86.60;2.40;;;21.60;32.70;;;;;;5031087;28;20174;-72
2023/06/06 07:34:16;;;;;;;81.40;2.20;;;21.50;34.70;;;;;;5030784;28;20456;-72
2023/06/06 07:36:42;;;;;;;81.70;2.37;;;22.00;33.80;;;;;;5030905;28;20182;-72
2023/06/06 07:39:08;;;;;;;81.47;2.33;;;22.40;32.30;;;;;;5031417;28;20191;-72
2023/06/06 07:41:33;;;;;;;81.63;2.40;;;22.40;29.90;;;;;;5031819;28;20169;-72
2023/06/06 07:44:00;;;;;;;81.50;2.20;;;22.10;31.30;;;;;;5030836;28;20470;-72
2023/06/06 07:46:26;;;;;;;81.57;2.30;;;22.40;32.70;;;;;;5030817;28;20168;-72
2023/06/06 07:48:52;;;;;;;81.77;2.47;;;22.40;31.70;;;;;;5031474;28;20786;-72
2023/06/06 07:51:18;;;;;;;81.57;2.43;;;22.70;30.90;;;;;;5031264;28;20176;-72
2023/06/06 07:53:44;;;;;;;82.50;2.63;;;22.50;29.30;;;;;;5030597;28;20200;-72
2023/06/06 07:56:13;;;;;;;81.57;2.50;;;21.80;30.30;;;;;;5031310;28;20403;-72
2023/06/06 07:58:40;;;;;;;81.70;2.40;;;21.70;31.40;;;;;;5030071;28;20184;-72
2023/06/06 08:01:07;;;;;;;81.30;2.40;;;22.10;31.00;;;;;;5030218;28;20511;-72
2023/06/06 08:03:32;;;;;;;80.90;1.90;;;22.50;30.10;;;;;;5015271;28;20419;-72
2023/06/06 08:05:58;;;;;;;81.50;2.40;;;23.00;28.10;;;;;;5010881;28;20478;-72
2023/06/06 08:08:26;;;;;;;82.20;2.33;;;23.30;28.30;;;;;;5011882;28;20217;-72
2023/06/06 08:10:52;;;;;;;80.90;2.03;;;23.40;27.20;;;;;;5011531;28;20180;-72
2023/06/06 08:13:19;;;;;;;81.10;2.30;;;23.20;26.80;;;;;;5010720;28;20450;-72
2023/06/06 08:15:45;;;;;;;80.93;2.40;;;22.70;27.90;;;;;;5012043;28;20416;-72
2023/06/06 08:18:12;;;;;;;80.80;2.13;;;23.00;28.10;;;;;;5014807;28;20409;-72
2023/06/06 08:20:38;;;;;;;80.87;2.23;;;23.30;26.70;;;;;;5014932;28;20428;-72
2023/06/06 08:23:04;;;;;;;81.47;2.33;;;23.50;26.70;;;;;;5014649;28;20419;-72
2023/06/06 08:25:29;;;;;;;81.00;2.33;;;23.50;26.40;;;;;;5013594;28;20178;-72
2023/06/06 08:27:58;;;;;;;80.90;2.30;;;23.70;25.80;;;;;;5013044;28;20178;-72
2023/06/06 08:30:23;;;;;;;81.27;2.30;;;24.00;25.70;;;;;;5014648;28;20197;-72
2023/06/06 08:32:50;;;;;;;80.57;2.13;;;24.20;25.20;;;;;;5014922;28;20418;-72
2023/06/06 08:35:16;;;;;;;80.97;2.30;;;24.10;24.80;;;;;;5015130;28;20167;-72
2023/06/06 08:37:42;;;;;;;80.73;2.20;;;24.00;23.60;;;;;;5015307;28;20422;-72
2023/06/06 08:40:09;;;;;;;81.07;2.37;;;24.40;25.90;;;;;;5015055;28;20452;-72
2023/06/06 08:42:40;;;;;;;80.57;2.30;;;24.40;24.00;;;;;;5014573;28;20176;-72
2023/06/06 08:45:07;;;;;;;80.43;2.20;;;24.30;23.30;;;;;;5015117;28;20493;-72
2023/06/06 08:47:34;;;;;;;80.27;2.33;;;24.20;23.30;;;;;;5015200;28;20404;-72
2023/06/06 08:50:07;;;;;;;80.63;2.60;;;24.40;23.70;;;;;;5014779;28;20433;-70
2023/06/06 08:52:34;;;;;;;81.97;2.73;;;24.40;22.10;;;;;;5015156;28;20461;-73
2023/06/06 08:55:01;;;;;;;89.50;2.83;;;24.50;22.40;;;;;;5015679;28;20458;-70
2023/06/06 08:57:27;;;;;;;86.53;2.40;;;24.60;21.60;;;;;;5015183;28;20923;-70
2023/06/06 08:59:53;;;;;;;79.37;2.23;;;24.70;21.50;;;;;;5014706;28;20537;-68
2023/06/06 09:02:18;;;;;;;79.40;2.23;;;24.70;21.40;;;;;;5014855;28;20422;-68
2023/06/06 09:04:47;;;;;;;80.10;2.47;;;24.80;21.90;;;;;;5014175;28;20257;-68
2023/06/06 09:07:14;;;;;;;80.30;2.43;;;25.10;22.80;;;;;;5015007;28;20177;-70
2023/06/06 09:09:42;;;;;;;79.20;2.20;;;25.30;20.30;;;;;;5014841;28;20427;-71
2023/06/06 09:12:08;;;;;;;80.10;2.57;;;25.20;20.10;;;;;;5015665;28;20412;-70
2023/06/06 09:14:34;;;;;;;79.27;2.40;;;25.10;20.30;;;;;;5014525;28;20451;-70
2023/06/06 09:17:01;;;;;;;78.70;1.97;;;25.30;20.40;;;;;;5015184;28;20400;-70
2023/06/06 09:19:27;;;;;;;78.70;2.17;;;25.50;19.80;;;;;;5014681;28;20185;-70
2023/06/06 09:21:57;;;;;;;78.50;2.20;;;25.30;20.00;;;;;;5014735;28;20941;-70
2023/06/06 09:24:22;;;;;;;78.87;2.47;;;25.00;20.60;;;;;;5014226;28;20173;-70
2023/06/06 09:26:48;;;;;;;79.17;2.70;;;24.60;20.60;;;;;;5013886;28;20469;-71
2023/06/06 09:29:13;;;;;;;78.43;2.20;;;24.40;21.10;;;;;;5013628;28;20196;-71
2023/06/06 09:31:41;;;;;;;78.27;2.30;;;24.90;20.50;;;;;;5014683;28;20550;-70
2023/06/06 09:34:08;;;;;;;78.20;2.40;;;25.20;20.40;;;;;;5014263;28;20196;-70
2023/06/06 09:36:34;;;;;;;78.27;2.30;;;25.50;20.50;;;;;;5014453;28;20420;-71
2023/06/06 09:39:18;;;;;;;79.40;2.43;;;25.60;20.20;;;;;;5014239;28;20908;-71
2023/06/06 09:41:45;;;;;;;77.30;2.20;;;25.50;19.60;;;;;;5013298;28;20470;-70
2023/06/06 09:44:21;;;;;;;78.40;2.70;;;25.40;19.70;;;;;;5012709;28;20415;-70
2023/06/06 09:47:00;;;;;;;77.07;2.30;;;25.60;19.90;;;;;;5014210;28;20485;-70
2023/06/06 09:49:34;;;;;;;77.30;2.40;;;25.70;20.70;;;;;;5014316;28;20957;-70
2023/06/06 09:52:00;;;;;;;77.33;2.30;;;25.90;20.00;;;;;;5014283;28;20401;-71
2023/06/06 09:54:26;;;;;;;76.87;2.00;;;25.90;21.00;;;;;;5013888;28;20529;-70
2023/06/06 09:56:52;;;;;;;77.37;2.40;;;26.40;19.70;;;;;;5014249;28;20232;-70
2023/06/06 09:59:22;;;;;;;86.90;3.00;;;26.60;19.80;;;;;;5013614;28;20613;-71
2023/06/06 10:01:52;;;;;;;77.47;2.30;;;26.70;18.70;;;;;;5014161;28;20964;-72
2023/06/06 10:04:18;;;;;;;77.43;2.60;;;26.40;19.80;;;;;;5013702;28;20853;-71
2023/06/06 10:06:46;;;;;;;77.23;2.23;;;26.80;18.90;;;;;;5013964;28;20443;-71
2023/06/06 10:09:12;;;;;;;77.00;2.47;;;26.20;18.30;;;;;;5013970;28;20573;-70
2023/06/06 10:11:39;;;;;;;77.00;2.30;;;26.10;19.30;;;;;;5013862;28;20420;-70
2023/06/06 10:14:05;;;;;;;77.37;2.57;;;25.60;19.90;;;;;;5013334;28;20546;-72
2023/06/06 10:16:35;;;;;;;76.20;2.33;;;25.80;19.70;;;;;;5012557;28;20448;-70
2023/06/06 10:19:03;;;;;;;76.77;2.40;;;26.30;19.60;;;;;;5013674;28;20428;-70
2023/06/06 10:21:30;;;;;;;75.90;2.27;;;26.80;19.90;;;;;;5012490;28;20469;-70
2023/06/06 10:23:56;;;;;;;76.20;2.20;;;26.60;19.20;;;;;;5011691;28;20420;-70
2023/06/06 10:26:38;;;;;;;75.67;2.20;;;26.20;18.60;;;;;;5013581;28;20415;-71
2023/06/06 10:29:10;;;;;;;79.70;2.93;;;26.00;19.10;;;;;;5013120;28;20220;-70
2023/06/06 10:31:57;;;;;;;75.37;2.07;;;26.20;19.90;;;;;;5013557;28;20424;-71
2023/06/06 10:34:33;;;;;;;76.17;2.60;;;26.80;18.80;;;;;;5012557;28;20505;-70
2023/06/06 10:37:14;;;;;;;75.07;2.00;;;25.70;20.30;;;;;;5013306;28;20847;-72
2023/06/06 10:39:41;;;;;;;75.90;2.60;;;26.50;20.20;;;;;;5012966;28;20432;-71
2023/06/06 10:42:08;;;;;;;75.57;2.67;;;26.90;18.70;;;;;;5013139;28;20953;-70
2023/06/06 10:44:45;;;;;;;75.37;2.40;;;27.40;17.40;;;;;;5012840;28;20459;-71
2023/06/06 10:47:33;;;;;;;75.07;2.30;;;27.50;17.20;;;;;;5013139;28;20392;-70
2023/06/06 10:50:08;;;;;;;75.80;2.53;;;27.60;17.30;;;;;;5012948;28;20428;-72
2023/06/06 10:53:05;;;;;;;74.97;2.17;;;27.70;16.50;;;;;;5011650;28;20439;-74
2023/06/06 10:55:30;;;;;;;75.23;2.20;;;27.60;17.30;;;;;;5013247;28;20833;-70
2023/06/06 10:58:11;;;;;;;76.57;2.47;;;27.70;17.50;;;;;;5013061;28;20487;-71
2023/06/06 11:00:46;;;;;;;75.40;2.53;;;27.70;17.30;;;;;;5012446;28;20350;-70
2023/06/06 11:03:19;;;;;;;75.97;2.10;;;26.70;18.20;;;;;;5012542;28;20442;-73
2023/06/06 11:05:59;;;;;;;74.67;2.20;;;27.10;17.90;;;;;;5012932;28;20880;-71
2023/06/06 11:08:56;;;;;;;75.30;2.47;;;27.10;18.10;;;;;;5012812;28;20412;-71
2023/06/06 11:11:30;;;;;;;75.00;2.37;;;27.40;17.20;;;;;;5011975;28;20427;-72
2023/06/06 11:14:03;;;;;;;75.07;2.57;;;28.00;18.10;;;;;;5012219;28;20966;-70
2023/06/06 11:16:41;;;;;;;74.83;2.27;;;28.00;17.50;;;;;;5012853;28;20491;-71
2023/06/06 11:19:14;;;;;;;75.00;2.27;;;28.60;17.80;;;;;;5012522;28;20806;-72
2023/06/06 11:21:41;;;;;;;74.67;2.20;;;29.40;16.30;;;;;;5012683;28;20431;-71
2023/06/06 11:24:07;;;;;;;79.00;2.50;;;28.70;15.80;;;;;;5010665;28;20485;-74
2023/06/06 11:26:34;;;;;;;74.57;2.13;;;29.10;16.60;;;;;;5012514;28;20420;-71
2023/06/06 11:29:00;;;;;;;74.57;2.20;;;28.70;15.90;;;;;;5011916;28;20440;-68
2023/06/06 11:31:27;;;;;;;74.00;2.00;;;28.50;16.00;;;;;;5012049;28;20469;-68
2023/06/06 11:34:14;;;;;;;74.20;2.10;;;27.90;15.40;;;;;;5011455;28;20857;-68
2023/06/06 11:36:41;;;;;;;73.53;1.90;;;27.10;15.90;;;;;;5011940;28;20883;-73
2023/06/06 11:39:11;;;;;;;74.40;2.27;;;28.50;16.80;;;;;;5012037;28;20432;-73
2023/06/06 11:41:47;;;;;;;73.70;1.90;;;30.50;14.90;;;;;;5012076;28;20408;-73
2023/06/06 11:44:16;;;;;;;73.67;2.00;;;31.70;12.70;;;;;;5011426;28;20434;-71
2023/06/06 11:46:48;;;;;;;73.53;2.00;;;32.30;12.00;;;;;;5011605;28;20443;-71
2023/06/06 11:49:15;;;;;;;73.27;2.17;;;33.00;10.10;;;;;;5012177;28;20545;-71
2023/06/06 11:51:41;;;;;;;72.60;1.90;;;33.20;8.80;;;;;;5011120;28;20813;-71
2023/06/06 11:54:18;;;;;;;72.33;2.00;;;33.30;10.20;;;;;;5011082;28;20460;-72
2023/06/06 11:56:44;;;;;;;72.77;2.20;;;34.60;8.50;;;;;;5011952;28;20157;-71
2023/06/06 11:59:13;;;;;;;73.10;2.20;;;35.10;9.20;;;;;;5011119;28;20462;-71
2023/06/06 12:01:54;;;;;;;72.00;2.20;;;34.60;8.30;;;;;;5011814;28;20420;-71
2023/06/06 12:04:21;;;;;;;70.60;1.70;;;35.50;8.80;;;;;;5011184;28;20420;-72
2023/06/06 12:06:54;;;;;;;70.27;1.97;;;35.90;6.20;;;;;;5011578;28;20415;-72
2023/06/06 12:09:23;;;;;;;69.67;2.00;;;35.80;6.30;;;;;;5011587;28;20647;-72
2023/06/06 12:11:55;;;;;;;69.27;1.70;;;35.80;6.80;;;;;;5011847;28;20424;-72
2023/06/06 12:14:23;;;;;;;68.80;1.80;;;35.20;6.10;;;;;;5010946;28;20450;-72
2023/06/06 12:16:48;;;;;;;68.90;1.90;;;35.40;7.50;;;;;;5011625;28;20419;-72
2023/06/06 12:19:15;;;;;;;68.70;1.63;;;34.90;6.80;;;;;;5011318;28;20436;-71
2023/06/06 12:21:48;;;;;;;71.70;2.20;;;32.70;7.70;;;;;;5011435;28;20649;-70
2023/06/06 12:24:28;;;;;;;70.07;2.10;;;29.50;11.10;;;;;;5010796;28;20495;-70
2023/06/06 12:26:59;;;;;;;69.97;2.17;;;28.60;13.70;;;;;;5011481;28;20419;-71
2023/06/06 12:29:30;;;;;;;69.57;2.20;;;29.70;11.60;;;;;;5011086;28;20939;-70
2023/06/06 12:32:23;;;;;;;69.37;2.10;;;30.30;11.00;;;;;;5011254;28;20422;-70
2023/06/06 12:35:02;;;;;;;68.77;1.97;;;29.00;12.60;;;;;;5010840;28;20949;-71
2023/06/06 12:37:46;;;;;;;68.67;1.97;;;30.30;13.20;;;;;;5011390;28;20418;-71
2023/06/06 12:40:15;;;;;;;69.07;1.90;;;32.60;10.40;;;;;;5009931;28;20518;-69
2023/06/06 12:42:42;;;;;;;68.93;2.00;;;33.40;8.50;;;;;;5011300;28;20940;-69